createdAt,value
2022-10-28T00:00:32.974Z,3.30
2022-10-28T00:03:06.476Z,2.80
2022-10-28T00:05:35.521Z,2.90
2022-10-28T00:08:03.673Z,3.00
2022-10-28T00:33:20.341Z,2.95
2022-10-28T00:36:14.335Z,3.13
2022-10-28T00:39:04.897Z,3.03
2022-10-28T01:26:26.303Z,2.55
2022-10-28T01:30:20.642Z,2.78
2022-10-28T01:34:04.111Z,2.85
2022-10-28T04:05:59.794Z,3.17
2022-10-28T04:08:27.417Z,3.10
2022-10-28T04:11:12.058Z,3.38
2022-10-28T04:13:44.943Z,2.97
2022-10-28T04:19:04.161Z,3.00
2022-10-28T04:21:36.271Z,3.20
2022-10-28T04:24:25.069Z,3.13
2022-10-28T04:27:14.400Z,3.50
2022-10-28T04:29:52.651Z,3.08
2022-10-28T04:36:04.428Z,2.90
2022-10-28T04:39:02.001Z,3.13
2022-10-28T04:41:44.565Z,3.30
2022-10-28T04:44:43.064Z,3.17
2022-10-28T04:47:47.393Z,3.40
2022-10-28T04:51:00.689Z,3.50
2022-10-28T04:53:55.229Z,3.58
2022-10-28T04:56:28.973Z,3.20
2022-10-28T04:59:17.439Z,3.55
2022-10-28T05:02:21.718Z,3.35
2022-10-28T05:26:00.279Z,3.55
2022-10-28T05:28:33.629Z,3.60
2022-10-28T05:41:57.513Z,3.38
2022-10-28T06:48:21.381Z,4.13
2022-10-28T06:51:14.565Z,3.92
2022-10-28T06:53:59.672Z,3.30
2022-10-28T06:56:48.035Z,4.15
2022-10-28T07:02:25.807Z,3.90
2022-10-28T07:05:15.661Z,3.67
2022-10-28T07:08:00.613Z,3.35
2022-10-28T07:17:34.651Z,3.70
2022-10-28T07:20:07.647Z,3.40
2022-10-28T07:23:35.349Z,4.10
2022-10-28T07:26:06.927Z,4.20
2022-10-28T07:28:40.784Z,3.63
2022-10-28T07:31:15.056Z,3.85
2022-10-28T10:47:23.025Z,3.45
2022-10-28T10:51:46.442Z,3.65
2022-10-28T13:05:15.486Z,5.15
2022-10-28T13:31:46.404Z,4.07
2022-10-28T13:34:50.944Z,3.63
2022-10-28T13:38:05.128Z,3.60
2022-10-28T13:41:30.164Z,3.80
2022-10-28T13:46:07.276Z,3.75
2022-10-28T13:48:46.120Z,4.10
2022-10-28T13:52:26.051Z,3.75
2022-10-28T14:00:12.314Z,4.10
2022-10-28T14:11:36.277Z,3.90
2022-10-28T14:15:43.938Z,3.65
2022-10-28T14:27:51.204Z,3.53
2022-10-28T14:34:56.996Z,2.85
2022-10-28T14:38:26.851Z,3.15
2022-10-28T14:50:56.873Z,3.63
2022-10-28T14:53:55.852Z,3.22
2022-10-28T14:58:53.420Z,3.00
2022-10-28T15:19:32.322Z,3.30
2022-10-28T15:43:40.722Z,3.10
2022-10-28T15:46:17.638Z,3.35
2022-10-28T15:49:44.344Z,3.50
2022-10-28T15:52:19.189Z,3.35
2022-10-28T15:56:02.503Z,3.10
2022-10-28T15:59:02.283Z,3.92
2022-10-28T16:02:05.788Z,3.47
2022-10-28T16:04:58.489Z,3.22
2022-10-28T16:07:30.152Z,3.67
2022-10-28T16:10:44.693Z,3.15
2022-10-28T16:13:58.379Z,3.53
2022-10-28T16:17:02.619Z,3.10
2022-10-28T16:20:21.234Z,3.35
2022-10-28T16:23:34.062Z,3.58
2022-10-28T16:26:20.085Z,3.65
2022-10-28T16:28:59.037Z,3.33
2022-10-28T16:31:39.832Z,3.20
2022-10-28T16:34:30.264Z,3.50
2022-10-28T16:37:10.900Z,2.92
2022-10-28T16:40:30.753Z,2.83
2022-10-28T16:43:03.056Z,3.70
2022-10-28T16:45:45.412Z,3.65
2022-10-28T16:48:39.828Z,3.28
2022-10-28T16:51:22.376Z,3.85
2022-10-28T16:53:56.031Z,3.30
2022-10-28T16:56:24.824Z,3.55
2022-10-28T16:59:08.035Z,3.42
2022-10-28T17:01:40.194Z,3.30
2022-10-28T17:04:18.518Z,3.15
2022-10-28T17:07:07.360Z,3.25
2022-10-28T17:09:40.986Z,4.05
2022-10-28T17:12:18.788Z,4.40
2022-10-28T17:14:57.153Z,3.55
2022-10-28T17:17:37.593Z,3.45
2022-10-28T17:20:19.909Z,3.60
2022-10-28T17:23:01.175Z,3.97
2022-10-28T17:25:31.938Z,4.13
2022-10-28T17:28:19.508Z,3.92
2022-10-28T17:30:53.435Z,3.28
2022-10-28T17:36:03.224Z,3.70
2022-10-28T17:38:33.112Z,4.28
2022-10-28T17:41:01.726Z,4.15
2022-10-28T17:44:13.267Z,4.30
2022-10-28T17:46:58.046Z,4.00
2022-10-28T17:49:32.122Z,4.07
2022-10-28T17:52:22.722Z,4.05
2022-10-28T17:55:03.446Z,5.10
2022-10-28T17:57:40.240Z,4.70
2022-10-28T18:00:11.936Z,5.53
2022-10-28T18:03:04.682Z,5.95
2022-10-28T18:05:48.913Z,6.15
2022-10-28T18:08:28.442Z,5.40
2022-10-28T18:11:15.195Z,5.90
2022-10-28T18:13:55.606Z,6.88
2022-10-28T18:16:40.149Z,6.20
2022-10-28T18:19:21.349Z,6.50
2022-10-28T18:21:52.390Z,5.88
2022-10-28T18:24:26.209Z,6.57
2022-10-28T18:26:56.145Z,6.03
2022-10-28T18:29:27.795Z,5.80
2022-10-28T18:31:57.041Z,5.22
2022-10-28T18:34:27.704Z,5.25
2022-10-28T18:36:56.722Z,4.93
2022-10-28T18:39:24.616Z,4.45
2022-10-28T18:41:52.252Z,4.13
2022-10-28T18:44:25.182Z,4.10
2022-10-28T18:47:02.816Z,4.53
2022-10-28T18:52:04.228Z,4.22
2022-10-28T18:54:36.568Z,4.38
2022-10-28T18:57:04.208Z,4.20
2022-10-28T19:08:51.705Z,4.28
2022-10-28T19:21:23.823Z,4.00
2022-10-28T19:49:35.570Z,4.53
2022-10-28T20:52:07.408Z,5.00
2022-10-28T20:54:34.496Z,4.22
2022-10-28T20:57:01.646Z,4.05
2022-10-28T20:59:29.261Z,4.57
2022-10-28T21:01:57.119Z,4.63
2022-10-28T21:04:24.850Z,4.82
2022-10-28T21:06:54.566Z,4.97
2022-10-28T21:09:22.889Z,4.88
2022-10-28T21:11:50.534Z,4.47
2022-10-28T21:14:17.712Z,4.72
2022-10-28T21:16:45.111Z,5.00
2022-10-28T21:19:12.680Z,4.93
2022-10-28T21:21:40.114Z,5.03
2022-10-28T21:24:07.948Z,5.00
2022-10-28T21:26:35.282Z,4.85
2022-10-28T21:29:02.568Z,5.10
2022-10-28T21:31:30.169Z,5.00
2022-10-28T21:34:01.810Z,5.32
2022-10-28T21:36:34.776Z,5.03
2022-10-28T21:39:02.509Z,4.95
2022-10-28T21:41:30.095Z,4.57
2022-10-28T21:43:58.048Z,4.93
2022-10-28T21:46:28.949Z,4.78
2022-10-28T21:48:57.034Z,4.68
2022-10-28T21:51:32.508Z,5.72
2022-10-28T21:54:02.904Z,6.43
2022-10-28T21:56:35.184Z,4.97
2022-10-28T21:59:03.559Z,4.95
2022-10-28T22:01:44.056Z,4.85
2022-10-28T22:04:59.972Z,5.88
2022-10-28T22:07:44.164Z,5.07
2022-10-28T22:10:22.624Z,5.57
2022-10-28T22:13:45.174Z,5.20
2022-10-28T22:16:42.427Z,5.20
2022-10-28T22:19:36.988Z,4.57
2022-10-28T22:22:30.453Z,4.80
2022-10-28T22:25:37.616Z,4.35
2022-10-28T22:28:14.469Z,5.43
2022-10-28T22:30:47.846Z,5.25
2022-10-28T22:33:21.845Z,5.78
2022-10-28T22:36:02.214Z,5.40
2022-10-28T22:38:32.585Z,5.03
2022-10-28T22:41:13.601Z,5.75
2022-10-28T22:43:43.613Z,5.22
2022-10-28T22:46:22.631Z,6.68
2022-10-28T22:48:53.998Z,6.53
2022-10-28T22:51:22.862Z,6.28
2022-10-28T22:53:52.031Z,5.40
2022-10-28T22:56:25.234Z,5.93
2022-10-28T22:59:03.694Z,6.00
2022-10-28T23:01:35.123Z,5.57
2022-10-28T23:04:13.409Z,6.07
2022-10-28T23:06:44.180Z,5.80
2022-10-28T23:09:11.620Z,5.38
2022-10-28T23:11:42.029Z,5.55
2022-10-28T23:14:12.454Z,5.82
2022-10-28T23:16:43.189Z,5.53
2022-10-28T23:19:10.875Z,6.07
2022-10-28T23:21:38.695Z,5.15
2022-10-28T23:24:06.943Z,5.53
2022-10-28T23:26:34.478Z,5.35
2022-10-28T23:29:14.352Z,5.00
2022-10-28T23:31:44.891Z,5.40
2022-10-28T23:34:15.954Z,5.82
2022-10-28T23:36:45.670Z,5.40
2022-10-28T23:39:13.444Z,5.38
2022-10-28T23:41:45.045Z,5.20
2022-10-28T23:44:12.920Z,5.30
2022-10-28T23:46:44.143Z,5.10
2022-10-28T23:49:11.497Z,5.80
2022-10-28T23:51:48.624Z,5.07
2022-10-28T23:54:18.799Z,5.50
2022-10-28T23:56:46.428Z,5.22
2022-10-28T23:59:17.358Z,6.53
